KEWK/EWK METAR and TAF weather

Enter ICAO airport designator
Station Type Date Time Source
KEWK METAR 2020/10/20 16:56 UTC NOAA

KEWK 201656Z AUTO 17008KT 10SM OVC006 07/05 A3001 RMK AO2 SLP166 T00720050


Station Type Date Time Source
KEWK Decoded METAR 2020/10/20 16:56 UTC NOAA

Newton, Newton City/County Airport, KS, United States (KEWK) 38-03N 097-17W
Oct 20, 2020 - 12:56 PM EDT / 2020.10.20 1656 UTC
Wind: from the S (170 degrees) at 9 MPH (8 KT):0
Visibility: 10 mile(s):0
Sky conditions: overcast
Temperature: 45.0 F (7.2 C)
Dew Point: 41.0 F (5.0 C)
Relative Humidity: 85%
Pressure (altimeter): 30.01 in. Hg (1016 hPa)
ob: KEWK 201656Z AUTO 17008KT 10SM OVC006 07/05 A3001 RMK AO2 SLP166 T00720050
cycle: 17

Station Type Date Time Source
KEWK TAF UTC NOAA

Error!

Example: see airport list